createdAt,value
2023-05-10T00:00:50.369Z,99487.97
2023-05-10T00:03:51.919Z,99484.94
2023-05-10T00:06:53.445Z,99481.16
2023-05-10T00:09:57.228Z,99479.63
2023-05-10T00:12:58.704Z,99473.22
2023-05-10T00:16:00.261Z,99474.34
2023-05-10T00:19:01.729Z,99475.84
2023-05-10T00:22:03.185Z,99471.34
2023-05-10T00:25:04.862Z,99472.84
2023-05-10T00:28:06.276Z,99464.56
2023-05-10T00:31:07.696Z,99469.44
2023-05-10T00:34:09.158Z,99460.78
2023-05-10T00:37:10.610Z,99461.16
2023-05-10T00:40:12.353Z,99458.13
2023-05-10T00:43:15.814Z,99449.84
2023-05-10T00:46:17.355Z,99449.84
2023-05-10T00:49:18.810Z,99449.47
2023-05-10T00:52:20.520Z,99450.59
2023-05-10T00:55:22.389Z,99447.16
2023-05-10T00:58:23.857Z,99450.91
2023-05-10T01:01:25.541Z,99444.47
2023-05-10T01:04:27.055Z,99436.94
2023-05-10T01:07:28.538Z,99435.03
2023-05-10T01:10:30.192Z,99426.00
2023-05-10T01:13:31.697Z,99431.25
2023-05-10T01:16:33.487Z,99431.22
2023-05-10T01:19:35.131Z,99424.44
2023-05-10T01:22:36.528Z,99421.44
2023-05-10T01:25:58.224Z,99429.69
2023-05-10T01:29:12.599Z,99425.53
2023-05-10T01:32:20.885Z,99427.75
2023-05-10T01:35:31.590Z,99422.84
2023-05-10T01:38:53.263Z,99412.28
2023-05-10T01:41:54.671Z,99413.75
2023-05-10T01:45:14.816Z,99412.22
2023-05-10T01:48:16.281Z,99414.84
2023-05-10T01:51:17.959Z,99421.59
2023-05-10T01:54:20.485Z,99415.13
2023-05-10T01:57:21.946Z,99414.72
2023-05-10T02:00:23.415Z,99414.31
2023-05-10T02:03:26.929Z,99414.63
2023-05-10T02:06:28.428Z,99410.44
2023-05-10T02:09:29.869Z,99406.25
2023-05-10T02:12:31.903Z,99412.97
2023-05-10T02:15:33.434Z,99411.06
2023-05-10T02:18:35.062Z,99406.13
2023-05-10T02:21:36.856Z,99407.28
2023-05-10T02:24:38.349Z,99402.72
2023-05-10T02:27:39.825Z,99409.09
2023-05-10T02:30:43.279Z,99406.13
2023-05-10T02:33:45.871Z,99400.84
2023-05-10T02:36:47.345Z,99410.97
2023-05-10T02:39:48.990Z,99399.66
2023-05-10T02:42:51.351Z,99411.25
2023-05-10T02:45:52.926Z,99414.22
2023-05-10T02:48:54.381Z,99402.25
2023-05-10T02:51:57.471Z,99409.72
2023-05-10T02:55:01.934Z,99410.06
2023-05-10T02:58:03.538Z,99403.66
2023-05-10T03:01:05.026Z,99414.94
2023-05-10T03:04:06.488Z,99409.59
2023-05-10T03:07:08.348Z,99407.66
2023-05-10T03:10:10.275Z,99409.16
2023-05-10T03:13:16.745Z,99409.88
2023-05-10T03:16:21.798Z,99408.28
2023-05-10T03:19:26.385Z,99421.50
2023-05-10T03:22:38.274Z,99416.97
2023-05-10T03:25:40.248Z,99411.38
2023-05-10T03:28:42.264Z,99420.34
2023-05-10T03:31:43.877Z,99422.22
2023-05-10T03:34:45.445Z,99430.13
2023-05-10T03:37:47.051Z,99426.31
2023-05-10T03:40:48.591Z,99431.19
2023-05-10T03:43:50.063Z,99423.94
2023-05-10T03:46:51.585Z,99433.78
2023-05-10T03:49:53.257Z,99439.47
2023-05-10T03:52:55.013Z,99437.59
2023-05-10T03:55:56.684Z,99433.13
2023-05-10T03:58:58.856Z,99445.53
2023-05-10T04:02:00.412Z,99442.22
2023-05-10T04:05:01.985Z,99443.47
2023-05-10T04:08:03.652Z,99442.38
2023-05-10T04:11:06.272Z,99439.16
2023-05-10T04:14:07.682Z,99440.66
2023-05-10T04:17:09.200Z,99443.72
2023-05-10T04:20:11.010Z,99452.00
2023-05-10T04:23:12.465Z,99439.66
2023-05-10T04:26:14.111Z,99449.84
2023-05-10T04:29:15.546Z,99448.75
2023-05-10T04:32:16.983Z,99446.47
2023-05-10T04:35:18.498Z,99444.59
2023-05-10T04:38:19.970Z,99457.75
2023-05-10T04:41:21.405Z,99449.44
2023-05-10T04:44:22.829Z,99451.72
2023-05-10T04:47:24.343Z,99448.03
2023-05-10T04:50:25.812Z,99448.84
2023-05-10T04:53:27.263Z,99440.97
2023-05-10T04:56:28.740Z,99449.69
2023-05-10T04:59:30.198Z,99451.22
2023-05-10T05:02:31.700Z,99447.09
2023-05-10T05:05:33.170Z,99453.94
2023-05-10T05:08:34.604Z,99458.47
2023-05-10T05:12:49.494Z,99448.00
2023-05-10T05:15:51.002Z,99448.03
2023-05-10T05:18:52.527Z,99438.28
2023-05-10T05:21:54.025Z,99477.41
2023-05-10T05:25:04.681Z,99355.69
2023-05-10T05:26:06.160Z,99338.38
2023-05-10T05:27:07.568Z,99327.44
2023-05-10T05:28:08.972Z,99331.59
2023-05-10T05:29:10.397Z,99331.19
2023-05-10T05:30:11.974Z,99329.69
2023-05-10T05:31:13.426Z,99327.06
2023-05-10T05:32:14.972Z,99336.47
2023-05-10T05:33:16.445Z,99336.47
2023-05-10T05:34:17.885Z,99337.22
2023-05-10T05:35:19.532Z,99340.63
2023-05-10T05:36:21.081Z,99338.00
2023-05-10T05:37:22.542Z,99337.97
2023-05-10T05:38:23.975Z,99332.69
2023-05-10T05:39:25.372Z,99345.13
2023-05-10T05:40:26.827Z,99339.50
2023-05-10T05:41:28.241Z,99348.53
2023-05-10T05:42:29.662Z,99355.31
2023-05-10T05:43:31.114Z,99347.78
2023-05-10T05:44:32.570Z,99351.91
2023-05-10T05:45:34.011Z,99342.50
2023-05-10T05:46:35.431Z,99344.75
2023-05-10T05:47:36.847Z,99359.81
2023-05-10T05:48:38.295Z,99356.81
2023-05-10T05:49:39.699Z,99357.56
2023-05-10T05:50:41.170Z,99353.00
2023-05-10T05:51:42.630Z,99361.66
2023-05-10T05:52:44.068Z,99352.63
2023-05-10T05:53:45.478Z,99358.25
2023-05-10T05:54:46.924Z,99353.75
2023-05-10T05:55:53.929Z,99358.28
2023-05-10T05:56:55.972Z,99356.38
2023-05-10T05:57:57.390Z,99364.31
2023-05-10T05:58:58.822Z,99370.31
2023-05-10T06:00:00.287Z,99366.91
2023-05-10T06:01:01.710Z,99362.34
2023-05-10T06:02:03.205Z,99358.19
2023-05-10T06:03:04.725Z,99357.44
2023-05-10T06:04:06.274Z,99364.19
2023-05-10T06:05:07.945Z,99362.66
2023-05-10T06:06:09.385Z,99365.69
2023-05-10T06:07:10.847Z,99361.13
2023-05-10T06:08:12.267Z,99360.41
2023-05-10T06:09:13.677Z,99366.03
2023-05-10T06:10:15.181Z,99369.44
2023-05-10T06:11:16.610Z,99375.44
2023-05-10T06:12:18.018Z,99367.91
2023-05-10T06:13:19.507Z,99366.00
2023-05-10T06:14:21.291Z,99371.25
2023-05-10T06:15:22.758Z,99375.78
2023-05-10T06:16:24.261Z,99376.88
2023-05-10T06:17:25.675Z,99378.00
2023-05-10T06:18:27.095Z,99375.72
2023-05-10T06:19:28.508Z,99378.34
2023-05-10T06:20:30.047Z,99380.59
2023-05-10T06:21:31.500Z,99376.03
2023-05-10T06:22:32.918Z,99380.56
2023-05-10T06:23:34.364Z,99379.78
2023-05-10T06:24:35.777Z,99367.41
2023-05-10T06:25:37.212Z,99377.84
2023-05-10T06:26:38.681Z,99384.28
2023-05-10T06:27:40.086Z,99372.97
2023-05-10T06:28:41.488Z,99378.63
2023-05-10T06:29:42.902Z,99374.06
2023-05-10T06:30:44.295Z,99367.66
2023-05-10T06:31:45.830Z,99376.00
2023-05-10T06:32:47.378Z,99370.28
2023-05-10T06:33:48.791Z,99386.53
2023-05-10T06:34:50.201Z,99369.88
2023-05-10T06:35:51.583Z,99366.88
2023-05-10T06:37:39.652Z,99385.41
2023-05-10T06:38:41.094Z,99372.81
2023-05-10T06:39:42.498Z,99361.00
2023-05-10T06:40:44.050Z,99373.75
2023-05-10T06:41:45.483Z,99357.81
2023-05-10T06:42:47.264Z,99370.25
2023-05-10T06:43:48.664Z,99355.41
2023-05-10T06:44:50.113Z,99365.16
2023-05-10T06:45:51.540Z,99361.28
2023-05-10T06:46:53.010Z,99358.09
2023-05-10T06:47:54.526Z,99357.25
2023-05-10T06:48:55.962Z,99370.13
2023-05-10T06:49:57.402Z,99364.78
2023-05-10T06:50:59.230Z,99361.66
2023-05-10T06:52:00.655Z,99362.00
2023-05-10T06:53:02.094Z,99358.50
2023-05-10T06:54:03.524Z,99356.94
2023-05-10T06:55:05.248Z,99374.31
2023-05-10T06:56:06.640Z,99360.63
2023-05-10T06:57:23.277Z,99355.69
2023-05-10T06:58:31.634Z,99355.59
2023-05-10T06:59:33.101Z,99354.38
2023-05-10T07:00:34.745Z,99355.53
2023-05-10T07:01:36.256Z,99348.78
2023-05-10T07:02:37.737Z,99357.53
2023-05-10T07:03:39.248Z,99363.94
2023-05-10T07:04:40.727Z,99355.16
2023-05-10T07:05:42.213Z,99359.28
2023-05-10T07:06:43.685Z,99355.44
2023-05-10T07:07:45.107Z,99352.75
2023-05-10T07:08:46.510Z,99359.97
2023-05-10T07:09:47.936Z,99352.31
2023-05-10T07:10:49.339Z,99347.31
2023-05-10T07:11:50.798Z,99352.22
2023-05-10T07:12:52.246Z,99354.88
2023-05-10T07:13:53.736Z,99358.97
2023-05-10T07:14:55.205Z,99361.56
2023-05-10T07:15:56.695Z,99354.66
2023-05-10T07:16:58.165Z,99360.63
2023-05-10T07:17:59.733Z,99364.81
2023-05-10T07:19:01.251Z,99341.94
2023-05-10T07:20:02.786Z,99349.91
2023-05-10T07:21:04.356Z,99355.03
2023-05-10T07:22:05.808Z,99346.84
2023-05-10T07:23:07.231Z,99350.59
2023-05-10T07:24:08.645Z,99357.78
2023-05-10T07:25:10.197Z,99352.06
2023-05-10T07:26:11.631Z,99360.34
2023-05-10T07:27:13.059Z,99361.13
2023-05-10T07:28:15.031Z,99367.84
2023-05-10T07:29:16.452Z,99364.88
2023-05-10T07:30:17.913Z,99362.91
2023-05-10T07:31:19.381Z,99369.28
2023-05-10T07:32:20.898Z,99369.69
2023-05-10T07:33:22.380Z,99360.50
2023-05-10T07:34:23.794Z,99360.09
2023-05-10T07:35:25.202Z,99371.47
2023-05-10T07:36:26.804Z,99352.50
2023-05-10T07:37:28.426Z,99369.03
2023-05-10T07:38:30.067Z,99365.22
2023-05-10T07:39:31.713Z,99362.91
2023-05-10T07:40:33.384Z,99353.72
2023-05-10T07:41:35.867Z,99353.25
2023-05-10T07:42:37.625Z,99351.00
2023-05-10T07:43:39.262Z,99357.06
2023-05-10T07:44:40.905Z,99369.59
2023-05-10T07:45:42.568Z,99351.34
2023-05-10T07:46:44.250Z,99352.91
2023-05-10T07:47:45.828Z,99351.25
2023-05-10T07:48:47.266Z,99355.38
2023-05-10T07:49:48.727Z,99361.03
2023-05-10T07:50:50.156Z,99365.94
2023-05-10T07:51:51.561Z,99363.28
2023-05-10T07:52:53.180Z,99359.13
2023-05-10T07:53:54.807Z,99359.13
2023-05-10T07:54:56.416Z,99345.03
2023-05-10T07:56:20.079Z,99350.25
2023-05-10T07:57:21.716Z,99344.22
2023-05-10T07:58:23.333Z,99336.97
2023-05-10T07:59:24.957Z,99346.88
2023-05-10T08:00:26.550Z,99346.44
2023-05-10T08:01:30.511Z,99348.34
2023-05-10T08:02:32.238Z,99352.50
2023-05-10T08:03:34.033Z,99349.38
2023-05-10T08:04:35.727Z,99354.97
2023-05-10T08:05:37.414Z,99352.63
2023-05-10T08:06:39.051Z,99359.38
2023-05-10T08:07:40.683Z,99347.22
2023-05-10T08:08:42.503Z,99349.00
2023-05-10T08:09:44.154Z,99342.19
2023-05-10T08:10:45.788Z,99339.44
2023-05-10T08:11:47.494Z,99335.22
2023-05-10T08:12:49.132Z,99338.97
2023-05-10T08:13:50.943Z,99342.06
2023-05-10T08:14:52.619Z,99334.84
2023-05-10T08:15:54.085Z,99326.38
2023-05-10T08:16:55.568Z,99326.44
2023-05-10T08:17:57.084Z,99329.91
2023-05-10T08:18:58.573Z,99328.00
2023-05-10T08:20:00.013Z,99316.28
2023-05-10T08:21:01.469Z,99317.13
2023-05-10T08:22:02.929Z,99318.94
2023-05-10T08:23:04.328Z,99329.16
2023-05-10T08:24:06.025Z,99338.28
2023-05-10T08:25:07.648Z,99333.34
2023-05-10T08:26:09.120Z,99335.16
2023-05-10T08:27:10.580Z,99331.69
2023-05-10T08:28:12.132Z,99329.72
2023-05-10T08:29:13.616Z,99335.78
2023-05-10T08:30:15.261Z,99336.94
2023-05-10T08:31:16.776Z,99343.69
2023-05-10T08:32:18.528Z,99333.72
2023-05-10T08:33:19.949Z,99334.47
2023-05-10T08:34:21.537Z,99330.63
2023-05-10T08:35:23.079Z,99350.75
2023-05-10T08:36:24.530Z,99343.91
2023-05-10T08:37:25.977Z,99335.19
2023-05-10T08:38:27.396Z,99343.59
2023-05-10T08:39:30.667Z,99332.53
2023-05-10T08:40:32.612Z,99328.72
2023-05-10T08:41:34.373Z,99324.56
2023-05-10T08:42:36.039Z,99323.50
2023-05-10T08:43:37.724Z,99333.28
2023-05-10T08:44:39.188Z,99335.94
2023-05-10T08:45:41.157Z,99333.22
2023-05-10T08:46:42.659Z,99324.16
2023-05-10T08:47:44.114Z,99319.59
2023-05-10T08:48:46.098Z,99315.13
2023-05-10T08:49:48.295Z,99320.66
2023-05-10T08:50:49.719Z,99328.22
2023-05-10T08:51:52.901Z,99318.00
2023-05-10T08:52:54.551Z,99329.56
2023-05-10T08:53:55.992Z,99325.25
2023-05-10T08:54:57.825Z,99310.72
2023-05-10T08:55:59.453Z,99317.09
2023-05-10T08:57:01.163Z,99325.72
2023-05-10T08:58:02.980Z,99322.66
2023-05-10T08:59:04.609Z,99319.53
2023-05-10T09:00:06.816Z,99324.75
2023-05-10T09:02:10.543Z,99328.63
2023-05-10T09:03:12.054Z,99325.88
2023-05-10T09:04:13.626Z,99325.81
2023-05-10T09:05:15.265Z,99320.72
2023-05-10T09:06:16.841Z,99327.53
2023-05-10T09:07:18.293Z,99324.13
2023-05-10T09:08:19.762Z,99325.94
2023-05-10T09:09:21.435Z,99327.03
2023-05-10T09:10:22.870Z,99324.56
2023-05-10T09:11:24.273Z,99321.69
2023-05-10T09:12:25.752Z,99325.25
2023-05-10T09:13:27.212Z,99320.22
2023-05-10T09:14:28.664Z,99311.84
2023-05-10T09:15:30.082Z,99307.66
2023-05-10T09:16:31.539Z,99309.47
2023-05-10T09:17:33.043Z,99312.13
2023-05-10T09:18:34.562Z,99317.47
2023-05-10T09:19:35.969Z,99312.81
2023-05-10T09:20:37.391Z,99315.38
2023-05-10T09:21:38.828Z,99314.53
2023-05-10T09:22:40.262Z,99308.03
2023-05-10T09:23:47.364Z,99312.09
2023-05-10T09:24:49.566Z,99317.09
2023-05-10T09:26:02.457Z,99319.84
2023-05-10T09:27:03.899Z,99302.47
2023-05-10T09:28:08.288Z,99312.50
2023-05-10T09:29:09.739Z,99322.63
2023-05-10T09:30:11.296Z,99322.06
2023-05-10T09:31:12.728Z,99317.78
2023-05-10T09:32:14.167Z,99315.88
2023-05-10T09:33:15.582Z,99312.34
2023-05-10T09:34:19.749Z,99306.91
2023-05-10T09:35:25.977Z,99313.63
2023-05-10T09:36:29.407Z,99302.44
2023-05-10T09:37:30.828Z,99301.91
2023-05-10T09:38:35.027Z,99302.88
2023-05-10T09:39:39.268Z,99305.00
2023-05-10T09:40:40.670Z,99303.72
2023-05-10T09:41:42.080Z,99307.34
2023-05-10T09:42:51.934Z,99308.75
2023-05-10T09:43:56.310Z,99308.97
2023-05-10T09:45:04.120Z,99300.84
2023-05-10T09:46:09.473Z,99302.75
2023-05-10T09:47:10.874Z,99298.94
2023-05-10T09:48:12.335Z,99289.13
2023-05-10T09:49:15.246Z,99279.22
2023-05-10T09:50:16.669Z,99289.66
2023-05-10T09:51:24.570Z,99291.69
2023-05-10T09:52:25.976Z,99302.78
2023-05-10T09:53:27.398Z,99297.91
2023-05-10T09:54:28.886Z,99303.63
2023-05-10T09:55:39.635Z,99294.78
2023-05-10T09:56:41.187Z,99288.16
2023-05-10T09:57:42.651Z,99297.97
2023-05-10T09:58:44.068Z,99300.53
2023-05-10T09:59:45.544Z,99293.19
2023-05-10T10:00:47.016Z,99296.16
2023-05-10T10:01:51.609Z,99288.56
2023-05-10T10:02:56.632Z,99274.53
2023-05-10T10:03:58.308Z,99285.09
2023-05-10T10:05:01.807Z,99276.13
2023-05-10T10:06:03.395Z,99276.03
2023-05-10T10:07:05.052Z,99269.09
2023-05-10T10:08:06.934Z,99268.03
2023-05-10T10:09:08.669Z,99279.22
2023-05-10T10:10:10.398Z,99273.13
2023-05-10T10:11:12.001Z,99287.31
2023-05-10T10:12:13.390Z,99290.75
2023-05-10T10:13:14.920Z,99285.31
2023-05-10T10:14:17.198Z,99282.94
2023-05-10T10:15:19.040Z,99282.75
2023-05-10T10:16:21.221Z,99280.16
2023-05-10T10:17:22.887Z,99277.31
2023-05-10T10:18:24.578Z,99279.22
2023-05-10T10:19:26.229Z,99272.38
2023-05-10T10:20:28.775Z,99262.16
2023-05-10T10:21:30.338Z,99271.09
2023-05-10T10:22:31.780Z,99284.66
2023-05-10T10:23:33.232Z,99281.78
2023-05-10T10:24:34.655Z,99279.75
2023-05-10T10:25:36.063Z,99282.31
2023-05-10T10:26:37.495Z,99277.91
2023-05-10T10:27:38.901Z,99280.78
2023-05-10T10:28:40.288Z,99276.84
2023-05-10T10:30:02.490Z,99271.25
2023-05-10T10:31:36.152Z,99276.81
2023-05-10T10:32:56.157Z,99274.22
2023-05-10T10:34:01.314Z,99271.88
2023-05-10T10:35:02.958Z,99282.84
2023-05-10T10:36:04.710Z,99276.34
2023-05-10T10:37:06.619Z,99290.31
2023-05-10T10:38:08.899Z,99266.72
2023-05-10T10:39:10.538Z,99268.66
2023-05-10T10:40:24.312Z,99270.47
2023-05-10T10:41:28.810Z,99263.47
2023-05-10T10:42:45.717Z,99269.22
2023-05-10T10:43:47.162Z,99263.88
2023-05-10T10:44:48.570Z,99271.88
2023-05-10T10:46:08.786Z,99265.38
2023-05-10T10:47:13.286Z,99271.47
2023-05-10T10:48:23.884Z,99252.34
2023-05-10T10:49:25.346Z,99267.94
2023-05-10T10:50:26.770Z,99269.22
2023-05-10T10:51:29.558Z,99272.75
2023-05-10T10:52:40.205Z,99279.13
2023-05-10T10:53:41.716Z,99264.94
2023-05-10T10:54:50.893Z,99264.09
2023-05-10T10:55:53.008Z,99256.00
2023-05-10T10:57:10.973Z,99262.25
2023-05-10T10:58:13.422Z,99266.94
2023-05-10T10:59:14.838Z,99281.00
2023-05-10T11:00:23.086Z,99264.75
2023-05-10T11:01:24.618Z,99262.59
2023-05-10T11:02:35.725Z,99263.19
2023-05-10T11:03:37.200Z,99264.56
2023-05-10T11:04:44.420Z,99249.59
2023-05-10T11:05:46.322Z,99269.34
2023-05-10T11:06:47.760Z,99272.22
2023-05-10T11:07:58.839Z,99261.28
2023-05-10T11:09:00.506Z,99252.59
2023-05-10T11:10:05.359Z,99256.94
2023-05-10T11:11:07.171Z,99259.91
2023-05-10T11:12:11.360Z,99243.88
2023-05-10T11:13:12.780Z,99264.69
2023-05-10T11:14:14.216Z,99251.94
2023-05-10T11:15:15.906Z,99247.63
2023-05-10T11:16:17.625Z,99251.06
2023-05-10T11:17:28.479Z,99251.69
2023-05-10T11:18:30.863Z,99241.88
2023-05-10T11:19:32.278Z,99249.44
2023-05-10T11:20:42.825Z,99252.25
2023-05-10T11:21:47.113Z,99254.16
2023-05-10T11:22:52.009Z,99251.94
2023-05-10T11:23:54.047Z,99240.16
2023-05-10T11:24:58.290Z,99252.50
2023-05-10T11:26:00.316Z,99248.34
2023-05-10T11:27:01.736Z,99242.56
2023-05-10T11:28:03.332Z,99246.00
2023-05-10T11:29:04.758Z,99261.13
2023-05-10T11:30:06.902Z,99255.22
2023-05-10T11:31:08.335Z,99247.72
2023-05-10T11:32:09.762Z,99245.78
2023-05-10T11:33:12.168Z,99251.44
2023-05-10T11:34:23.521Z,99262.72
2023-05-10T11:35:25.014Z,99247.44
2023-05-10T11:36:29.645Z,99247.72
2023-05-10T11:37:31.083Z,99245.38
2023-05-10T11:38:33.648Z,99240.63
2023-05-10T11:39:35.048Z,99252.78
2023-05-10T11:40:36.637Z,99235.88
2023-05-10T11:47:51.002Z,99264.78
2023-05-10T11:48:53.882Z,99263.03
2023-05-10T11:49:55.535Z,99254.00
2023-05-10T11:50:57.161Z,99248.03
2023-05-10T11:52:06.099Z,99255.94
2023-05-10T11:53:07.550Z,99253.94
2023-05-10T11:54:09.516Z,99244.34
2023-05-10T11:55:11.258Z,99225.91
2023-05-10T11:56:12.915Z,99215.06
2023-05-10T11:57:14.389Z,99221.34
2023-05-10T11:58:15.866Z,99211.13
2023-05-10T11:59:17.316Z,99209.28
2023-05-10T12:00:19.001Z,99208.41
2023-05-10T12:02:26.010Z,99214.47
2023-05-10T12:03:28.574Z,99215.06
2023-05-10T12:04:30.500Z,99221.44
2023-05-10T12:06:58.390Z,99176.41
2023-05-10T12:08:15.357Z,99167.91
2023-05-10T12:09:17.645Z,99201.00
2023-05-10T12:10:26.015Z,99204.97
2023-05-10T12:11:28.705Z,99206.41
2023-05-10T12:12:38.365Z,99206.50
2023-05-10T12:13:40.857Z,99218.28
2023-05-10T12:14:42.485Z,99203.94
2023-05-10T12:15:44.214Z,99219.06
2023-05-10T12:16:48.952Z,99222.09
2023-05-10T12:17:50.882Z,99224.16
2023-05-10T12:18:52.850Z,99217.97
2023-05-10T12:19:54.331Z,99221.44
2023-05-10T12:20:58.183Z,99209.78
2023-05-10T12:21:59.793Z,99215.69
2023-05-10T12:23:01.192Z,99219.72
2023-05-10T12:24:03.141Z,99216.34
2023-05-10T12:25:04.706Z,99225.38
2023-05-10T12:26:06.249Z,99232.28
2023-05-10T12:28:27.450Z,99228.03
2023-05-10T12:29:31.249Z,99228.06
2023-05-10T12:30:32.919Z,99224.00
2023-05-10T12:31:34.309Z,99222.13
2023-05-10T12:32:39.205Z,99223.47
2023-05-10T12:33:44.010Z,99199.00
2023-05-10T12:34:45.376Z,99200.88
2023-05-10T12:35:47.712Z,99210.22
2023-05-10T12:36:51.064Z,99215.53
2023-05-10T12:37:52.428Z,99221.81
2023-05-10T12:38:57.486Z,99203.38
2023-05-10T12:39:58.852Z,99208.91
2023-05-10T12:41:01.169Z,99210.09
2023-05-10T12:42:02.827Z,99224.66
2023-05-10T12:43:04.416Z,99226.00
2023-05-10T12:44:06.080Z,99229.63
2023-05-10T12:45:07.688Z,99231.19
2023-05-10T12:46:09.844Z,99228.00
2023-05-10T12:47:11.304Z,99131.13
2023-05-10T12:48:12.728Z,99222.22
2023-05-10T12:49:14.147Z,99223.25
2023-05-10T12:50:15.665Z,99216.22
2023-05-10T12:51:17.262Z,99212.38
2023-05-10T12:52:18.649Z,99220.38
2023-05-10T12:53:20.011Z,99230.59
2023-05-10T12:54:21.387Z,99217.03
2023-05-10T12:55:23.009Z,99209.31
2023-05-10T12:56:24.401Z,99203.00
2023-05-10T12:57:25.787Z,99200.28
2023-05-10T12:58:35.614Z,99207.19
2023-05-10T12:59:38.365Z,99214.31
2023-05-10T13:00:39.854Z,99208.50
2023-05-10T13:01:41.322Z,99208.16
2023-05-10T13:02:43.009Z,99184.28
2023-05-10T13:03:44.612Z,99210.97
2023-05-10T13:04:46.501Z,99183.88
2023-05-10T13:05:48.582Z,99201.09
2023-05-10T13:06:50.211Z,99205.09
2023-05-10T13:07:51.775Z,99201.59
2023-05-10T13:08:53.383Z,99198.44
2023-05-10T13:09:54.763Z,99201.66
2023-05-10T13:10:56.131Z,99201.44
2023-05-10T13:11:57.586Z,99210.13
2023-05-10T13:12:59.123Z,99208.47
2023-05-10T13:14:00.534Z,99207.91
2023-05-10T13:15:02.017Z,99214.38
2023-05-10T13:16:03.518Z,99195.25
2023-05-10T13:17:04.987Z,99208.66
2023-05-10T13:18:06.486Z,99210.66
2023-05-10T13:19:07.983Z,99198.84
2023-05-10T13:20:09.720Z,99199.59
2023-05-10T13:21:11.142Z,99199.00
2023-05-10T13:22:12.525Z,99204.63
2023-05-10T13:23:14.142Z,99200.28
2023-05-10T13:24:15.488Z,99195.13
2023-05-10T13:25:16.902Z,99209.03
2023-05-10T13:26:18.295Z,99217.84
2023-05-10T13:27:19.660Z,99214.75
2023-05-10T13:28:21.037Z,99218.56
2023-05-10T13:29:22.395Z,99202.66
2023-05-10T13:30:23.750Z,99204.47
2023-05-10T13:31:25.239Z,99193.72
2023-05-10T13:32:26.916Z,99188.53
2023-05-10T13:33:28.325Z,99177.69
2023-05-10T13:34:29.736Z,99171.72
2023-05-10T13:35:31.116Z,99174.13
2023-05-10T13:36:32.516Z,99165.53
2023-05-10T13:37:33.884Z,99166.44
2023-05-10T13:38:35.386Z,99165.09
2023-05-10T13:39:37.799Z,99172.22
2023-05-10T13:40:39.321Z,99157.97
2023-05-10T13:41:40.695Z,99162.44
2023-05-10T13:42:43.043Z,99169.84
2023-05-10T13:43:44.420Z,99160.03
2023-05-10T13:44:45.801Z,99160.06
2023-05-10T13:45:47.178Z,99161.13
2023-05-10T13:46:48.592Z,99151.91
2023-05-10T13:47:50.099Z,99148.19
2023-05-10T13:48:51.532Z,99148.19
2023-05-10T13:49:52.916Z,99158.56
2023-05-10T13:50:54.308Z,99149.47
2023-05-10T13:51:55.915Z,99138.19
2023-05-10T13:52:57.331Z,99143.38
2023-05-10T13:53:59.125Z,99144.25
2023-05-10T13:55:00.534Z,99145.41
2023-05-10T13:56:01.929Z,99147.19
2023-05-10T13:57:03.339Z,99138.63
2023-05-10T13:58:04.967Z,99136.22
2023-05-10T13:59:06.398Z,99139.56
2023-05-10T14:00:08.068Z,99141.03
2023-05-10T14:01:09.436Z,99130.81
2023-05-10T14:02:10.936Z,99132.66
2023-05-10T14:03:12.721Z,99126.16
2023-05-10T14:04:14.232Z,99132.41
2023-05-10T14:05:15.713Z,99135.41
2023-05-10T14:06:17.735Z,99149.97
2023-05-10T14:07:19.136Z,99155.78
2023-05-10T14:08:20.507Z,99156.66
2023-05-10T14:09:21.865Z,99149.91
2023-05-10T14:10:23.256Z,99158.38
2023-05-10T14:11:24.848Z,99160.81
2023-05-10T14:12:26.324Z,99171.66
2023-05-10T14:13:27.720Z,99162.75
2023-05-10T14:14:29.104Z,99162.63
2023-05-10T14:15:30.485Z,99160.97
2023-05-10T14:16:31.897Z,99156.78
2023-05-10T14:17:33.314Z,99165.09
2023-05-10T14:18:34.767Z,99159.78
2023-05-10T14:19:36.158Z,99160.78
2023-05-10T14:20:37.559Z,99158.13
2023-05-10T14:21:38.938Z,99162.09
2023-05-10T14:22:40.316Z,99160.59
2023-05-10T14:23:41.695Z,99155.88
2023-05-10T14:24:43.096Z,99154.41
2023-05-10T14:25:44.496Z,99157.38
2023-05-10T14:26:45.924Z,99161.69
2023-05-10T14:27:47.333Z,99168.56
2023-05-10T14:28:48.753Z,99167.97
2023-05-10T14:29:50.182Z,99160.50
2023-05-10T14:30:51.562Z,99163.03
2023-05-10T14:31:53.033Z,99146.22
2023-05-10T14:32:54.430Z,99152.06
2023-05-10T14:33:55.820Z,99146.53
2023-05-10T14:34:57.213Z,99144.72
2023-05-10T14:35:58.587Z,99148.97
2023-05-10T14:36:59.983Z,99135.34
2023-05-10T14:38:01.366Z,99135.47
2023-05-10T14:39:02.747Z,99134.19
2023-05-10T14:40:04.291Z,99147.66
2023-05-10T14:41:05.662Z,99145.28
2023-05-10T14:42:07.032Z,99136.69
2023-05-10T14:43:08.460Z,99127.16
2023-05-10T14:44:12.219Z,99122.31
2023-05-10T14:45:13.603Z,99123.06
2023-05-10T14:46:15.035Z,99137.13
2023-05-10T14:47:16.475Z,99125.53
2023-05-10T14:48:17.923Z,99132.88
2023-05-10T14:49:19.288Z,99127.22
2023-05-10T14:50:35.249Z,99132.50
2023-05-10T14:51:40.455Z,99144.81
2023-05-10T14:52:41.858Z,99124.38
2023-05-10T14:53:43.374Z,99138.47
2023-05-10T14:54:44.968Z,99150.44
2023-05-10T14:55:46.554Z,99128.00
2023-05-10T14:56:48.162Z,99120.91
2023-05-10T14:57:49.758Z,99037.41
2023-05-10T14:58:51.397Z,99126.50
2023-05-10T14:59:53.463Z,99122.78
2023-05-10T15:00:55.382Z,99121.13
2023-05-10T15:01:57.256Z,99110.81
2023-05-10T15:02:59.386Z,99131.34
2023-05-10T15:04:01.520Z,99091.81
2023-05-10T15:05:03.741Z,99120.38
2023-05-10T15:06:05.602Z,99131.66
2023-05-10T15:07:07.240Z,99124.72
2023-05-10T15:08:08.813Z,99129.50
2023-05-10T15:09:10.490Z,99129.69
2023-05-10T15:10:12.207Z,99133.78
2023-05-10T15:11:13.804Z,99134.63
2023-05-10T15:12:15.414Z,99149.16
2023-05-10T15:13:17.024Z,99127.06
2023-05-10T15:14:18.619Z,99143.38
2023-05-10T15:15:20.026Z,99152.19
2023-05-10T15:16:21.524Z,99152.84
2023-05-10T15:17:23.026Z,99148.13
2023-05-10T15:18:27.550Z,99146.19
2023-05-10T15:19:28.969Z,99164.91
2023-05-10T15:20:30.344Z,99160.03
2023-05-10T15:21:31.753Z,99149.16
2023-05-10T15:22:34.268Z,99150.16
2023-05-10T15:23:35.944Z,99149.03
2023-05-10T15:24:37.353Z,99157.47
2023-05-10T15:25:38.708Z,99164.16
2023-05-10T15:26:40.123Z,99161.41
2023-05-10T15:27:41.682Z,99156.47
2023-05-10T15:28:43.060Z,99143.81
2023-05-10T15:29:44.430Z,99146.28
2023-05-10T15:30:45.852Z,99148.66
2023-05-10T15:31:50.390Z,99147.00
2023-05-10T15:32:52.193Z,99154.16
2023-05-10T15:33:57.497Z,99147.22
2023-05-10T15:34:59.039Z,99164.47
2023-05-10T15:36:00.400Z,99154.84
2023-05-10T15:37:01.771Z,99148.50
2023-05-10T15:38:03.135Z,99152.50
2023-05-10T15:39:04.496Z,99161.63
2023-05-10T15:40:06.261Z,99157.34
2023-05-10T15:41:07.702Z,99160.16
2023-05-10T15:42:09.153Z,99163.72
2023-05-10T15:43:10.542Z,99156.59
2023-05-10T15:44:11.940Z,99162.84
2023-05-10T15:45:13.536Z,99160.13
2023-05-10T15:46:15.009Z,99156.75
2023-05-10T15:47:18.722Z,99155.34
2023-05-10T15:48:20.125Z,99155.56
2023-05-10T15:49:21.519Z,99160.84
2023-05-10T15:50:23.066Z,99168.13
2023-05-10T15:51:24.486Z,99169.50
2023-05-10T15:52:25.924Z,99175.50
2023-05-10T15:53:27.342Z,99174.34
2023-05-10T15:54:28.753Z,99173.75
2023-05-10T15:55:30.212Z,99168.53
2023-05-10T15:56:31.633Z,99171.94
2023-05-10T15:57:33.963Z,99166.13
2023-05-10T15:58:36.426Z,99175.47